VOE240 LFQQ-LFBO
Flight info
| Callsign | VOE240 |
|---|---|
| Flight time | 1h 14m |
| Altitude | 35000 |
| Route | VERMA T372 LESDO DCT KOVIN DCT DUCRA UM728 RESMI UN857 DISAK DCT DIRMO DCT GUERE DCT NARAK |
| Aircraft | A20N/M-SDE2E3FGHIRWXY/LB1 |
Departure
| Time | 2026-04-15 09:02 |
|---|---|
| Airport | Lille Airport (LFQQ) |
Arrival
| Time | 2026-04-15 10:16 |
|---|---|
| Airport | Toulouse-Blagnac Airport (LFBO) |
| Time | Latitude | Longitude | Altitude | Speed | Heading |
|---|---|---|---|---|---|
| 2026-04-15 08:38 | 50.57118 | 3.10691 | 155 ft | 0 kts | 15° |
| 2026-04-15 08:51 | 50.57110 | 3.10688 | 155 ft | 2 kts | 15° |
| 2026-04-15 08:51 | 50.57099 | 3.10683 | 154 ft | 1 kts | 15° |
| 2026-04-15 08:51 | 50.57091 | 3.10680 | 154 ft | 1 kts | 15° |
| 2026-04-15 08:51 | 50.57084 | 3.10677 | 154 ft | 1 kts | 14° |
| 2026-04-15 08:52 | 50.57076 | 3.10674 | 154 ft | 1 kts | 14° |
| 2026-04-15 08:52 | 50.57068 | 3.10671 | 153 ft | 1 kts | 14° |
| 2026-04-15 08:52 | 50.57060 | 3.10667 | 153 ft | 1 kts | 14° |
| 2026-04-15 08:52 | 50.57053 | 3.10664 | 153 ft | 1 kts | 14° |
| 2026-04-15 08:53 | 50.57040 | 3.10663 | 152 ft | 2 kts | 340° |
| 2026-04-15 08:53 | 50.57028 | 3.10675 | 152 ft | 1 kts | 288° |
| 2026-04-15 08:53 | 50.57029 | 3.10643 | 152 ft | 0 kts | 260° |
| 2026-04-15 08:56 | 50.57028 | 3.10630 | 152 ft | 4 kts | 260° |
| 2026-04-15 08:57 | 50.57022 | 3.10581 | 152 ft | 11 kts | 258° |
| 2026-04-15 08:57 | 50.56998 | 3.10407 | 152 ft | 22 kts | 256° |
| 2026-04-15 08:57 | 50.56874 | 3.10323 | 153 ft | 20 kts | 171° |
| 2026-04-15 08:57 | 50.56775 | 3.10287 | 152 ft | 7 kts | 262° |
| 2026-04-15 08:58 | 50.56753 | 3.10166 | 155 ft | 15 kts | 256° |
| 2026-04-15 08:58 | 50.56696 | 3.09780 | 160 ft | 28 kts | 257° |
| 2026-04-15 08:58 | 50.56649 | 3.09449 | 161 ft | 35 kts | 257° |
| 2026-04-15 08:59 | 50.56607 | 3.09128 | 158 ft | 21 kts | 253° |
| 2026-04-15 08:59 | 50.56543 | 3.09052 | 158 ft | 0 kts | 187° |
| 2026-04-15 08:59 | 50.56532 | 3.09053 | 158 ft | 6 kts | 177° |
| 2026-04-15 08:59 | 50.56470 | 3.09074 | 160 ft | 12 kts | 173° |
| 2026-04-15 09:00 | 50.56390 | 3.08998 | 162 ft | 18 kts | 246° |
| 2026-04-15 09:00 | 50.56353 | 3.08757 | 162 ft | 27 kts | 257° |
| 2026-04-15 09:00 | 50.56313 | 3.08460 | 161 ft | 24 kts | 266° |
| 2026-04-15 09:00 | 50.56308 | 3.08317 | 160 ft | 6 kts | 174° |
| 2026-04-15 09:01 | 50.56301 | 3.08394 | 161 ft | 11 kts | 80° |
| 2026-04-15 09:01 | 50.56305 | 3.08425 | 161 ft | 0 kts | 76° |
| 2026-04-15 09:01 | 50.56316 | 3.08497 | 161 ft | 36 kts | 77° |
| 2026-04-15 09:02 | 50.56434 | 3.09340 | 158 ft | 119 kts | 77° |
| 2026-04-15 09:02 | 50.56662 | 3.10943 | 352 ft | 166 kts | 79° |
| 2026-04-15 09:02 | 50.56922 | 3.12767 | 1171 ft | 176 kts | 83° |
| 2026-04-15 09:02 | 50.57209 | 3.14707 | 2086 ft | 189 kts | 84° |
| 2026-04-15 09:03 | 50.57441 | 3.16818 | 2883 ft | 202 kts | 95° |
| 2026-04-15 09:03 | 50.57122 | 3.19003 | 3650 ft | 212 kts | 123° |
| 2026-04-15 09:03 | 50.56108 | 3.20702 | 4436 ft | 223 kts | 152° |
| 2026-04-15 09:03 | 50.54587 | 3.21449 | 5317 ft | 231 kts | 180° |
| 2026-04-15 09:04 | 50.52917 | 3.21334 | 6149 ft | 251 kts | 183° |
| 2026-04-15 09:04 | 50.51144 | 3.21598 | 7049 ft | 263 kts | 169° |
| 2026-04-15 09:04 | 50.49355 | 3.22237 | 8050 ft | 269 kts | 172° |
| 2026-04-15 09:04 | 50.47626 | 3.22521 | 8929 ft | 273 kts | 181° |
| 2026-04-15 09:05 | 50.45680 | 3.22589 | 9869 ft | 279 kts | 180° |
| 2026-04-15 09:05 | 50.43695 | 3.22700 | 10641 ft | 289 kts | 180° |
| 2026-04-15 09:05 | 50.41605 | 3.22810 | 10975 ft | 312 kts | 180° |
| 2026-04-15 09:05 | 50.39382 | 3.22905 | 11351 ft | 331 kts | 180° |
| 2026-04-15 09:06 | 50.37057 | 3.22995 | 12099 ft | 337 kts | 180° |
| 2026-04-15 09:06 | 50.34708 | 3.23086 | 12960 ft | 340 kts | 180° |
| 2026-04-15 09:06 | 50.32321 | 3.23176 | 13775 ft | 345 kts | 180° |
| 2026-04-15 09:06 | 50.29912 | 3.23265 | 14486 ft | 350 kts | 180° |
| 2026-04-15 09:07 | 50.27489 | 3.23354 | 15191 ft | 354 kts | 181° |
| 2026-04-15 09:07 | 50.24983 | 3.23443 | 15850 ft | 360 kts | 181° |
| 2026-04-15 09:07 | 50.22473 | 3.23532 | 16507 ft | 364 kts | 181° |
| 2026-04-15 09:07 | 50.19911 | 3.23623 | 17165 ft | 369 kts | 181° |
| 2026-04-15 09:08 | 50.17330 | 3.23716 | 17819 ft | 374 kts | 181° |
| 2026-04-15 09:08 | 50.14713 | 3.23809 | 18457 ft | 379 kts | 181° |
| 2026-04-15 09:08 | 50.12072 | 3.23903 | 19036 ft | 382 kts | 181° |
| 2026-04-15 09:08 | 50.09401 | 3.23998 | 19654 ft | 385 kts | 181° |
| 2026-04-15 09:09 | 50.06701 | 3.24094 | 20211 ft | 389 kts | 181° |
| 2026-04-15 09:09 | 50.03947 | 3.24194 | 20804 ft | 392 kts | 181° |
| 2026-04-15 09:09 | 50.01209 | 3.24333 | 21377 ft | 396 kts | 178° |
| 2026-04-15 09:09 | 49.98458 | 3.24919 | 21927 ft | 402 kts | 170° |
| 2026-04-15 09:10 | 49.95728 | 3.25968 | 22486 ft | 406 kts | 167° |
| 2026-04-15 09:10 | 49.92965 | 3.27068 | 23032 ft | 410 kts | 167° |
| 2026-04-15 09:10 | 49.90195 | 3.28160 | 23581 ft | 413 kts | 168° |
| 2026-04-15 09:10 | 49.87392 | 3.29257 | 24066 ft | 417 kts | 168° |
| 2026-04-15 09:11 | 49.84573 | 3.30343 | 24521 ft | 419 kts | 170° |
| 2026-04-15 09:11 | 49.81672 | 3.30813 | 24962 ft | 419 kts | 183° |
| 2026-04-15 09:11 | 49.78865 | 3.30306 | 25064 ft | 400 kts | 195° |
| 2026-04-15 09:11 | 49.76257 | 3.28894 | 24753 ft | 396 kts | 206° |
| 2026-04-15 09:12 | 49.73743 | 3.27184 | 24604 ft | 398 kts | 205° |
| 2026-04-15 09:12 | 49.71152 | 3.25443 | 24656 ft | 408 kts | 205° |
| 2026-04-15 09:12 | 49.68518 | 3.23693 | 24979 ft | 414 kts | 205° |
| 2026-04-15 09:12 | 49.65865 | 3.21945 | 25448 ft | 416 kts | 205° |
| 2026-04-15 09:13 | 49.63202 | 3.20197 | 25911 ft | 418 kts | 205° |
| 2026-04-15 09:13 | 49.60520 | 3.18440 | 26335 ft | 421 kts | 205° |
| 2026-04-15 09:13 | 49.57803 | 3.16663 | 26751 ft | 424 kts | 205° |
| 2026-04-15 09:13 | 49.55089 | 3.14888 | 27172 ft | 426 kts | 205° |
| 2026-04-15 09:14 | 49.52345 | 3.13096 | 27580 ft | 428 kts | 205° |
| 2026-04-15 09:14 | 49.49611 | 3.11274 | 27989 ft | 430 kts | 208° |
| 2026-04-15 09:14 | 49.46981 | 3.09056 | 28345 ft | 431 kts | 214° |
| 2026-04-15 09:14 | 49.44481 | 3.06507 | 28716 ft | 432 kts | 216° |
| 2026-04-15 09:15 | 49.41979 | 3.03941 | 29088 ft | 434 kts | 216° |
| 2026-04-15 09:15 | 49.39446 | 3.01356 | 29440 ft | 437 kts | 216° |
| 2026-04-15 09:15 | 49.36944 | 2.98813 | 29766 ft | 439 kts | 216° |
| 2026-04-15 09:15 | 49.34391 | 2.96225 | 30125 ft | 441 kts | 216° |
| 2026-04-15 09:16 | 49.31798 | 2.93601 | 30435 ft | 443 kts | 216° |
| 2026-04-15 09:16 | 49.29240 | 2.91016 | 30744 ft | 445 kts | 216° |
| 2026-04-15 09:16 | 49.26648 | 2.88401 | 31064 ft | 446 kts | 216° |
| 2026-04-15 09:16 | 49.24057 | 2.85790 | 31393 ft | 448 kts | 216° |
| 2026-04-15 09:17 | 49.21475 | 2.83192 | 31772 ft | 447 kts | 216° |
| 2026-04-15 09:17 | 49.18862 | 2.80566 | 32191 ft | 445 kts | 216° |
| 2026-04-15 09:17 | 49.16282 | 2.77976 | 32604 ft | 444 kts | 216° |
| 2026-04-15 09:17 | 49.13704 | 2.75391 | 32993 ft | 443 kts | 216° |
| 2026-04-15 09:18 | 49.11136 | 2.72820 | 33392 ft | 441 kts | 216° |
| 2026-04-15 09:18 | 49.08566 | 2.70249 | 33777 ft | 440 kts | 216° |
| 2026-04-15 09:18 | 49.06015 | 2.67701 | 34147 ft | 438 kts | 216° |
| 2026-04-15 09:18 | 49.03468 | 2.65159 | 34477 ft | 437 kts | 216° |
| 2026-04-15 09:19 | 49.01102 | 2.62802 | 34754 ft | 436 kts | 216° |
| 2026-04-15 09:19 | 48.98467 | 2.60180 | 35049 ft | 435 kts | 216° |
| 2026-04-15 09:19 | 48.95932 | 2.57658 | 35195 ft | 434 kts | 216° |
| 2026-04-15 09:19 | 48.93419 | 2.55163 | 35212 ft | 433 kts | 216° |
| 2026-04-15 09:20 | 48.88383 | 2.50171 | 35206 ft | 432 kts | 216° |
| 2026-04-15 09:20 | 48.83313 | 2.45158 | 35210 ft | 432 kts | 216° |
| 2026-04-15 09:21 | 48.78274 | 2.40189 | 35213 ft | 432 kts | 216° |
| 2026-04-15 09:21 | 48.73263 | 2.35258 | 35213 ft | 432 kts | 216° |
| 2026-04-15 09:22 | 48.68226 | 2.30314 | 35208 ft | 431 kts | 216° |
| 2026-04-15 09:22 | 48.63187 | 2.25380 | 35206 ft | 431 kts | 216° |
| 2026-04-15 09:23 | 48.58005 | 2.20792 | 35199 ft | 434 kts | 208° |
| 2026-04-15 09:23 | 48.52291 | 2.17694 | 35194 ft | 439 kts | 198° |
| 2026-04-15 09:24 | 48.46495 | 2.15834 | 35181 ft | 440 kts | 195° |
| 2026-04-15 09:24 | 48.40519 | 2.13921 | 35179 ft | 440 kts | 196° |
| 2026-04-15 09:25 | 48.34561 | 2.12005 | 35177 ft | 440 kts | 196° |
| 2026-04-15 09:25 | 48.28473 | 2.10725 | 35178 ft | 445 kts | 186° |
| 2026-04-15 09:26 | 48.22251 | 2.11220 | 35179 ft | 452 kts | 175° |
| 2026-04-15 09:26 | 48.16030 | 2.12587 | 35188 ft | 452 kts | 175° |
| 2026-04-15 09:27 | 48.09777 | 2.13410 | 35193 ft | 450 kts | 182° |
| 2026-04-15 09:27 | 48.03520 | 2.13757 | 35201 ft | 450 kts | 182° |
| 2026-04-15 09:28 | 47.97246 | 2.14119 | 35216 ft | 452 kts | 181° |
| 2026-04-15 09:28 | 47.90966 | 2.14488 | 35208 ft | 452 kts | 181° |
| 2026-04-15 09:29 | 47.84661 | 2.14857 | 35212 ft | 453 kts | 181° |
| 2026-04-15 09:29 | 47.78395 | 2.15224 | 35222 ft | 454 kts | 181° |
| 2026-04-15 09:30 | 47.72039 | 2.15594 | 35211 ft | 454 kts | 181° |
| 2026-04-15 09:30 | 47.65759 | 2.15960 | 35204 ft | 455 kts | 181° |
| 2026-04-15 09:31 | 47.59418 | 2.16327 | 35200 ft | 455 kts | 181° |
| 2026-04-15 09:31 | 47.53080 | 2.16694 | 35204 ft | 456 kts | 181° |
| 2026-04-15 09:32 | 47.46732 | 2.17060 | 35209 ft | 456 kts | 181° |
| 2026-04-15 09:32 | 47.40389 | 2.17425 | 35209 ft | 456 kts | 181° |
| 2026-04-15 09:33 | 47.34032 | 2.17790 | 35213 ft | 457 kts | 181° |
| 2026-04-15 09:33 | 47.27716 | 2.18151 | 35209 ft | 457 kts | 181° |
| 2026-04-15 09:34 | 47.21361 | 2.18514 | 35212 ft | 457 kts | 181° |
| 2026-04-15 09:34 | 47.15009 | 2.18876 | 35211 ft | 457 kts | 181° |
| 2026-04-15 09:35 | 47.08652 | 2.19151 | 35212 ft | 456 kts | 185° |
| 2026-04-15 09:35 | 47.02333 | 2.18479 | 35205 ft | 454 kts | 188° |
| 2026-04-15 09:36 | 46.96025 | 2.17731 | 35212 ft | 455 kts | 188° |
| 2026-04-15 09:36 | 46.89749 | 2.17002 | 35213 ft | 455 kts | 188° |
| 2026-04-15 09:37 | 46.83435 | 2.16275 | 35217 ft | 456 kts | 188° |
| 2026-04-15 09:37 | 46.77112 | 2.15548 | 35214 ft | 456 kts | 188° |
| 2026-04-15 09:38 | 46.70779 | 2.14822 | 35214 ft | 456 kts | 188° |
| 2026-04-15 09:38 | 46.64441 | 2.14096 | 35213 ft | 457 kts | 188° |
| 2026-04-15 09:39 | 46.58098 | 2.13372 | 35210 ft | 457 kts | 188° |
| 2026-04-15 09:39 | 46.51746 | 2.12648 | 35210 ft | 458 kts | 188° |
| 2026-04-15 09:40 | 46.46469 | 2.12049 | 35212 ft | 459 kts | 188° |
| 2026-04-15 09:40 | 46.40093 | 2.11325 | 35219 ft | 459 kts | 188° |
| 2026-04-15 09:41 | 46.33708 | 2.10602 | 35213 ft | 460 kts | 188° |
| 2026-04-15 09:41 | 46.27329 | 2.09882 | 35214 ft | 460 kts | 188° |
| 2026-04-15 09:42 | 46.20949 | 2.09164 | 35212 ft | 460 kts | 188° |
| 2026-04-15 09:42 | 46.14576 | 2.08267 | 35211 ft | 459 kts | 191° |
| 2026-04-15 09:43 | 46.08289 | 2.07013 | 35208 ft | 459 kts | 192° |
| 2026-04-15 09:43 | 46.01891 | 2.05779 | 35211 ft | 460 kts | 191° |
| 2026-04-15 09:44 | 45.95582 | 2.04607 | 35213 ft | 461 kts | 191° |
| 2026-04-15 09:44 | 45.89172 | 2.03428 | 35212 ft | 462 kts | 191° |
| 2026-04-15 09:45 | 45.82833 | 2.02265 | 35214 ft | 462 kts | 191° |
| 2026-04-15 09:45 | 45.76445 | 2.01094 | 35212 ft | 463 kts | 191° |
| 2026-04-15 09:46 | 45.70048 | 1.99924 | 35217 ft | 464 kts | 191° |
| 2026-04-15 09:46 | 45.63642 | 1.98756 | 35214 ft | 464 kts | 191° |
| 2026-04-15 09:47 | 45.57237 | 1.97590 | 35217 ft | 464 kts | 191° |
| 2026-04-15 09:47 | 45.50810 | 1.96422 | 35216 ft | 465 kts | 191° |
| 2026-04-15 09:48 | 45.44408 | 1.95263 | 35214 ft | 465 kts | 191° |
| 2026-04-15 09:48 | 45.37979 | 1.94101 | 35217 ft | 465 kts | 191° |
| 2026-04-15 09:49 | 45.31555 | 1.92942 | 35220 ft | 465 kts | 191° |
| 2026-04-15 09:49 | 45.28351 | 1.92366 | 35081 ft | 462 kts | 191° |
| 2026-04-15 09:49 | 45.25163 | 1.91793 | 34626 ft | 461 kts | 191° |
| 2026-04-15 09:50 | 45.21971 | 1.91219 | 33942 ft | 462 kts | 191° |
| 2026-04-15 09:50 | 45.18790 | 1.90647 | 33125 ft | 464 kts | 190° |
| 2026-04-15 09:50 | 45.15568 | 1.90067 | 32295 ft | 466 kts | 190° |
| 2026-04-15 09:50 | 45.12345 | 1.89487 | 31465 ft | 468 kts | 190° |
| 2026-04-15 09:51 | 45.09109 | 1.88907 | 30628 ft | 470 kts | 189° |
| 2026-04-15 09:51 | 45.05912 | 1.88334 | 29926 ft | 468 kts | 189° |
| 2026-04-15 09:51 | 45.02649 | 1.87752 | 29293 ft | 463 kts | 189° |
| 2026-04-15 09:51 | 44.99514 | 1.87195 | 28673 ft | 458 kts | 189° |
| 2026-04-15 09:52 | 44.96364 | 1.86635 | 28047 ft | 454 kts | 189° |
| 2026-04-15 09:52 | 44.93246 | 1.86081 | 27443 ft | 450 kts | 189° |
| 2026-04-15 09:52 | 44.90153 | 1.85531 | 26840 ft | 446 kts | 189° |
| 2026-04-15 09:52 | 44.87093 | 1.84988 | 26259 ft | 442 kts | 189° |
| 2026-04-15 09:53 | 44.84051 | 1.84449 | 25694 ft | 438 kts | 189° |
| 2026-04-15 09:53 | 44.81042 | 1.83915 | 25126 ft | 434 kts | 188° |
| 2026-04-15 09:53 | 44.78058 | 1.83388 | 24572 ft | 431 kts | 188° |
| 2026-04-15 09:53 | 44.75087 | 1.82862 | 24022 ft | 428 kts | 188° |
| 2026-04-15 09:54 | 44.72150 | 1.82344 | 23441 ft | 424 kts | 188° |
| 2026-04-15 09:54 | 44.69248 | 1.81833 | 22845 ft | 420 kts | 188° |
| 2026-04-15 09:54 | 44.66355 | 1.81323 | 22259 ft | 416 kts | 188° |
| 2026-04-15 09:54 | 44.63503 | 1.80822 | 21687 ft | 411 kts | 188° |
| 2026-04-15 09:55 | 44.60669 | 1.80324 | 21136 ft | 408 kts | 188° |
| 2026-04-15 09:55 | 44.57868 | 1.79832 | 20582 ft | 404 kts | 188° |
| 2026-04-15 09:55 | 44.55093 | 1.79346 | 20024 ft | 401 kts | 188° |
| 2026-04-15 09:55 | 44.52331 | 1.78862 | 19505 ft | 397 kts | 188° |
| 2026-04-15 09:56 | 44.49603 | 1.78384 | 18990 ft | 394 kts | 188° |
| 2026-04-15 09:56 | 44.46904 | 1.77911 | 18463 ft | 390 kts | 188° |
| 2026-04-15 09:56 | 44.41553 | 1.76976 | 17329 ft | 384 kts | 188° |
| 2026-04-15 09:57 | 44.38915 | 1.76515 | 16786 ft | 380 kts | 188° |
| 2026-04-15 09:57 | 44.36335 | 1.76065 | 16245 ft | 377 kts | 188° |
| 2026-04-15 09:57 | 44.33713 | 1.75609 | 15726 ft | 374 kts | 188° |
| 2026-04-15 09:57 | 44.31155 | 1.75045 | 15195 ft | 370 kts | 195° |
| 2026-04-15 09:58 | 44.28743 | 1.73868 | 14691 ft | 365 kts | 206° |
| 2026-04-15 09:58 | 44.26590 | 1.72105 | 14203 ft | 361 kts | 216° |
| 2026-04-15 09:58 | 44.24537 | 1.70111 | 13699 ft | 358 kts | 216° |
| 2026-04-15 09:58 | 44.22497 | 1.68145 | 13176 ft | 355 kts | 216° |
| 2026-04-15 09:59 | 44.20462 | 1.66192 | 12670 ft | 352 kts | 216° |
| 2026-04-15 09:59 | 44.18451 | 1.64272 | 12179 ft | 349 kts | 215° |
| 2026-04-15 09:59 | 44.16456 | 1.62371 | 11675 ft | 346 kts | 216° |
| 2026-04-15 09:59 | 44.14486 | 1.60491 | 11225 ft | 343 kts | 216° |
| 2026-04-15 10:00 | 44.12519 | 1.58613 | 10753 ft | 340 kts | 216° |
| 2026-04-15 10:00 | 44.10588 | 1.56774 | 10562 ft | 330 kts | 215° |
| 2026-04-15 10:00 | 44.08735 | 1.55014 | 10593 ft | 317 kts | 216° |
| 2026-04-15 10:00 | 44.06948 | 1.53317 | 10323 ft | 304 kts | 216° |
| 2026-04-15 10:01 | 44.05233 | 1.51687 | 10210 ft | 293 kts | 215° |
| 2026-04-15 10:01 | 44.03566 | 1.50104 | 9858 ft | 290 kts | 216° |
| 2026-04-15 10:01 | 44.01896 | 1.48520 | 9425 ft | 290 kts | 216° |
| 2026-04-15 10:01 | 44.00232 | 1.46942 | 9057 ft | 289 kts | 216° |
| 2026-04-15 10:02 | 43.98482 | 1.45591 | 8650 ft | 289 kts | 199° |
| 2026-04-15 10:02 | 43.96504 | 1.45177 | 8251 ft | 290 kts | 177° |
| 2026-04-15 10:02 | 43.94490 | 1.45482 | 7887 ft | 290 kts | 173° |
| 2026-04-15 10:02 | 43.92487 | 1.45810 | 7493 ft | 289 kts | 173° |
| 2026-04-15 10:03 | 43.90516 | 1.46123 | 7108 ft | 289 kts | 173° |
| 2026-04-15 10:03 | 43.88518 | 1.46436 | 6767 ft | 288 kts | 174° |
| 2026-04-15 10:03 | 43.86528 | 1.46743 | 6415 ft | 286 kts | 174° |
| 2026-04-15 10:03 | 43.84553 | 1.47056 | 6075 ft | 285 kts | 173° |
| 2026-04-15 10:04 | 43.82560 | 1.47360 | 5767 ft | 283 kts | 174° |
| 2026-04-15 10:04 | 43.80638 | 1.47655 | 5451 ft | 281 kts | 173° |
| 2026-04-15 10:04 | 43.78696 | 1.47955 | 5133 ft | 279 kts | 174° |
| 2026-04-15 10:04 | 43.76774 | 1.48248 | 4812 ft | 278 kts | 174° |
| 2026-04-15 10:05 | 43.74857 | 1.48543 | 4553 ft | 276 kts | 174° |
| 2026-04-15 10:05 | 43.72955 | 1.48833 | 4267 ft | 275 kts | 174° |
| 2026-04-15 10:05 | 43.71066 | 1.49116 | 3968 ft | 273 kts | 174° |
| 2026-04-15 10:05 | 43.69190 | 1.49402 | 3640 ft | 272 kts | 175° |
| 2026-04-15 10:06 | 43.67317 | 1.49676 | 3374 ft | 270 kts | 174° |
| 2026-04-15 10:06 | 43.65466 | 1.49964 | 3243 ft | 263 kts | 174° |
| 2026-04-15 10:06 | 43.63681 | 1.50252 | 3162 ft | 254 kts | 174° |
| 2026-04-15 10:06 | 43.61959 | 1.50513 | 3105 ft | 250 kts | 179° |
| 2026-04-15 10:07 | 43.60317 | 1.50030 | 3006 ft | 233 kts | 211° |
| 2026-04-15 10:07 | 43.59241 | 1.48608 | 2978 ft | 204 kts | 246° |
| 2026-04-15 10:07 | 43.58963 | 1.46880 | 3027 ft | 168 kts | 272° |
| 2026-04-15 10:07 | 43.59045 | 1.45346 | 3002 ft | 160 kts | 278° |
| 2026-04-15 10:08 | 43.59189 | 1.43799 | 2987 ft | 163 kts | 280° |
| 2026-04-15 10:08 | 43.59353 | 1.42290 | 2982 ft | 161 kts | 280° |
| 2026-04-15 10:08 | 43.59539 | 1.40746 | 2546 ft | 161 kts | 284° |
| 2026-04-15 10:08 | 43.59986 | 1.39326 | 1924 ft | 161 kts | 310° |
| 2026-04-15 10:09 | 43.60829 | 1.38313 | 1343 ft | 162 kts | 323° |
| 2026-04-15 10:09 | 43.61719 | 1.37398 | 815 ft | 158 kts | 322° |
| 2026-04-15 10:09 | 43.62588 | 1.36498 | 690 ft | 162 kts | 324° |
| 2026-04-15 10:09 | 43.63516 | 1.35584 | 1239 ft | 167 kts | 324° |
| 2026-04-15 10:10 | 43.64427 | 1.34519 | 1877 ft | 179 kts | 304° |
| 2026-04-15 10:10 | 43.64738 | 1.32862 | 2776 ft | 186 kts | 270° |
| 2026-04-15 10:10 | 43.64378 | 1.31137 | 3690 ft | 195 kts | 239° |
| 2026-04-15 10:10 | 43.63194 | 1.30064 | 4276 ft | 223 kts | 191° |
| 2026-04-15 10:11 | 43.61676 | 1.30017 | 4579 ft | 209 kts | 181° |
| 2026-04-15 10:11 | 43.60308 | 1.30054 | 4737 ft | 185 kts | 179° |
| 2026-04-15 10:11 | 43.58984 | 1.30163 | 4840 ft | 208 kts | 176° |
| 2026-04-15 10:11 | 43.57522 | 1.30390 | 4880 ft | 209 kts | 169° |
| 2026-04-15 10:12 | 43.56191 | 1.31202 | 5052 ft | 213 kts | 143° |
| 2026-04-15 10:12 | 43.55079 | 1.32574 | 4989 ft | 211 kts | 135° |
| 2026-04-15 10:12 | 43.54095 | 1.33915 | 5041 ft | 190 kts | 134° |
| 2026-04-15 10:12 | 43.53193 | 1.35173 | 5026 ft | 180 kts | 134° |
| 2026-04-15 10:13 | 43.52432 | 1.36544 | 4711 ft | 180 kts | 104° |
| 2026-04-15 10:13 | 43.52596 | 1.38138 | 4340 ft | 168 kts | 54° |
| 2026-04-15 10:13 | 43.53347 | 1.39397 | 3829 ft | 170 kts | 46° |
| 2026-04-15 10:13 | 43.54104 | 1.40585 | 3494 ft | 164 kts | 45° |
| 2026-04-15 10:14 | 43.55024 | 1.41482 | 3170 ft | 164 kts | 5° |
| 2026-04-15 10:14 | 43.56154 | 1.41474 | 2940 ft | 156 kts | 355° |
| 2026-04-15 10:14 | 43.57233 | 1.41247 | 2556 ft | 156 kts | 343° |
| 2026-04-15 10:14 | 43.58244 | 1.40779 | 2146 ft | 154 kts | 333° |
| 2026-04-15 10:15 | 43.59138 | 1.40055 | 1746 ft | 148 kts | 323° |
| 2026-04-15 10:15 | 43.59952 | 1.39242 | 1448 ft | 137 kts | 320° |
| 2026-04-15 10:15 | 43.60698 | 1.38426 | 1100 ft | 138 kts | 321° |
| 2026-04-15 10:15 | 43.61468 | 1.37630 | 767 ft | 140 kts | 323° |
| 2026-04-15 10:16 | 43.62249 | 1.36840 | 505 ft | 135 kts | 323° |
| 2026-04-15 10:16 | 43.62757 | 1.36313 | 501 ft | 61 kts | 322° |
| 2026-04-15 10:16 | 43.62927 | 1.36136 | 499 ft | 33 kts | 321° |
| 2026-04-15 10:16 | 43.63193 | 1.35861 | 501 ft | 59 kts | 322° |
| 2026-04-15 10:17 | 43.63499 | 1.35541 | 499 ft | 42 kts | 323° |
| 2026-04-15 10:17 | 43.63604 | 1.35557 | 499 ft | 11 kts | 53° |
| 2026-04-15 10:17 | 43.63640 | 1.35610 | 490 ft | 0 kts | 57° |
| 2026-04-15 10:18 | 43.63661 | 1.35655 | 494 ft | 13 kts | 54° |
| 2026-04-15 10:19 | 43.63755 | 1.35822 | 499 ft | 28 kts | 51° |
| 2026-04-15 10:19 | 43.63798 | 1.36003 | 489 ft | 17 kts | 126° |
| 2026-04-15 10:19 | 43.63712 | 1.36102 | 499 ft | 16 kts | 141° |
| 2026-04-15 10:19 | 43.63601 | 1.36216 | 499 ft | 23 kts | 143° |
| 2026-04-15 10:20 | 43.63455 | 1.36369 | 500 ft | 29 kts | 136° |
| 2026-04-15 10:20 | 43.63322 | 1.36508 | 500 ft | 6 kts | 146° |
| 2026-04-15 10:20 | 43.63307 | 1.36522 | 500 ft | 7 kts | 146° |
| 2026-04-15 10:20 | 43.63246 | 1.36585 | 500 ft | 15 kts | 141° |
| 2026-04-15 10:21 | 43.63142 | 1.36695 | 501 ft | 16 kts | 141° |
| 2026-04-15 10:21 | 43.63119 | 1.36819 | 501 ft | 11 kts | 69° |
| 2026-04-15 10:21 | 43.63084 | 1.36912 | 501 ft | 13 kts | 127° |
| 2026-04-15 10:21 | 43.63032 | 1.37038 | 501 ft | 17 kts | 105° |
| 2026-04-15 10:22 | 43.62976 | 1.37174 | 502 ft | 18 kts | 140° |
| 2026-04-15 10:22 | 43.62860 | 1.37297 | 502 ft | 24 kts | 142° |
| 2026-04-15 10:22 | 43.62806 | 1.37406 | 502 ft | 1 kts | 60° |
| 2026-04-15 10:22 | 43.62817 | 1.37448 | 502 ft | 9 kts | 74° |
| 2026-04-15 10:23 | 43.62857 | 1.37525 | 502 ft | 8 kts | 17° |
| 2026-04-15 10:23 | 43.62889 | 1.37534 | 502 ft | 6 kts | 4° |
| 2026-04-15 10:23 | 43.62899 | 1.37535 | 502 ft | 0 kts | 4° |